ADDS METAR Data INFO
IDs: Format: Raw Decoded Include TAF

Data at: 2110 UTC 22 Oct 2017

KMDQ 222055Z AUTO 13010G16KT 10SM CLR 25/16 A3006 RMK AO2
KMDQ 222035Z AUTO 14006KT 10SM CLR 25/16 A3007 RMK AO2
KMDQ 222015Z AUTO 15009G15KT 10SM SCT050 25/16 A3007 RMK AO2
KMDQ 221955Z AUTO 13008KT 10SM BKN048 25/16 A3008 RMK AO2
KMDQ 221935Z AUTO 16012G16KT 10SM BKN046 25/15 A3009 RMK AO2
KMDQ 221915Z AUTO 15009G15KT 10SM BKN044 OVC050 25/15 A3010 RMK AO2
KMDQ 221855Z AUTO 16010G19KT 10SM BKN046 OVC055 24/15 A3010 RMK AO2
KMDQ 221835Z AUTO 15012G15KT 10SM SCT032 BKN046 OVC055 24/15 A3011 RMK AO2
KMDQ 221815Z AUTO 15010G19KT 10SM SCT032 BKN040 OVC050 24/15 A3012 RMK AO2
KMDQ 221755Z AUTO 15012G16KT 10SM SCT030 BKN037 24/15 A3013 RMK AO2
KMDQ 221735Z AUTO 14014G20KT 10SM SCT030 24/15 A3014 RMK AO2
KMDQ 221715Z AUTO 16011G18KT 10SM SCT030 24/15 A3015 RMK AO2
KMDQ 221655Z AUTO 16017G24KT 10SM SCT028 24/15 A3016 RMK AO2
KMDQ 221635Z AUTO 17016G22KT 10SM BKN028 24/16 A3016 RMK AO2
KMDQ 221615Z AUTO 15011G20KT 10SM SCT028 22/15 A3016 RMK AO2
KMDQ 221555Z AUTO 15010G16KT 10SM CLR 22/15 A3015 RMK AO2
KMDQ 221535Z AUTO 13013G21KT 10SM CLR 22/15 A3015 RMK AO2
KMDQ 221515Z AUTO 15012G19KT 10SM CLR 21/15 A3015 RMK AO2
KMDQ 221455Z AUTO 13013G18KT 10SM CLR 21/15 A3015 RMK AO2
KMDQ 221435Z AUTO 13007KT 10SM CLR 21/15 A3017 RMK AO2
KMDQ 221415Z AUTO 15007KT 10SM SCT047 20/15 A3019 RMK AO2
KMDQ 221355Z AUTO 13007KT 10SM SCT047 20/15 A3019 RMK AO2
KMDQ 221335Z AUTO 12005KT 10SM BKN047 18/15 A3019 RMK AO2
KMDQ 221315Z AUTO 12006KT 10SM SCT049 18/15 A3019 RMK AO2
KMDQ 221255Z AUTO 13006KT 10SM CLR 17/14 A3019 RMK AO2
KMDQ 221235Z AUTO 14006KT 10SM CLR 17/14 A3019 RMK AO2 LTG DSNT SW
KMDQ 221215Z AUTO 14006KT 10SM CLR 17/14 A3018 RMK AO2
KMDQ 221155Z AUTO 14007KT 10SM CLR 17/13 A3018 RMK AO2
KMDQ 221135Z AUTO 14009KT 10SM CLR 18/13 A3018 RMK AO2
KMDQ 221115Z AUTO 13006KT 10SM CLR 18/13 A3017 RMK AO2
KMDQ 221055Z AUTO 13007KT 10SM CLR 18/13 A3017 RMK AO2
KMDQ 221035Z AUTO 13010G14KT 10SM CLR 18/12 A3016 RMK AO2
KMDQ 221015Z AUTO 14007KT 10SM CLR 18/12 A3016 RMK AO2
KMDQ 220955Z AUTO 14009KT 10SM CLR 18/12 A3015 RMK AO2
KMDQ 220935Z AUTO 14007G16KT 10SM CLR 18/11 A3015 RMK AO2
KMDQ 220915Z AUTO 13011G15KT 10SM CLR 18/11 A3015 RMK AO2
KMDQ 220855Z AUTO 13009G14KT 10SM CLR 18/10 A3015 RMK AO2
KMDQ 220835Z AUTO 14009G15KT 110V170 10SM CLR 18/10 A3016 RMK AO2
KMDQ 220815Z AUTO 14010G14KT 10SM CLR 18/10 A3017 RMK AO2
KMDQ 220755Z AUTO 13011G17KT 10SM CLR 18/10 A3017 RMK AO2
KMDQ 220735Z AUTO 14011G18KT 10SM CLR 18/11 A3017 RMK AO2
KMDQ 220715Z AUTO 14007G14KT 10SM CLR 18/11 A3018 RMK AO2
KMDQ 220655Z AUTO 14009G14KT 10SM CLR 18/12 A3018 RMK AO2
KMDQ 220635Z AUTO 14009G15KT 10SM CLR 18/12 A3018 RMK AO2
KMDQ 220615Z AUTO 14009G14KT 10SM CLR 18/12 A3018 RMK AO2
KMDQ 220555Z AUTO 14009KT 10SM CLR 18/12 A3019 RMK AO2
KMDQ 220535Z AUTO 13009G15KT 10SM CLR 18/13 A3019 RMK AO2
KMDQ 220515Z AUTO 13007KT 10SM CLR 19/13 A3021 RMK AO2
KMDQ 220455Z AUTO 13007KT 10SM SCT046 19/12 A3022 RMK AO2
KMDQ 220435Z AUTO 12004KT 10SM SCT046 19/12 A3022 RMK AO2
KMDQ 220415Z AUTO 13005KT 10SM SCT046 19/12 A3023 RMK AO2
KMDQ 220355Z AUTO 14006KT 10SM CLR 20/12 A3023 RMK AO2
KMDQ 220335Z AUTO 13008KT 10SM CLR 20/12 A3023 RMK AO2
KMDQ 220315Z AUTO 13007KT 10SM CLR 20/12 A3023 RMK AO2
KMDQ 220255Z AUTO 14007KT 10SM CLR 20/12 A3023 RMK AO2
KMDQ 220235Z AUTO 13005KT 10SM CLR 20/12 A3022 RMK AO2
KMDQ 220215Z AUTO 14005KT 10SM CLR 20/12 A3022 RMK AO2
KMDQ 220155Z AUTO 14005KT 10SM CLR 20/12 A3021 RMK AO2
KMDQ 220135Z AUTO 00000KT 10SM CLR 17/13 A3021 RMK AO2
KMDQ 220115Z AUTO 00000KT 10SM CLR 18/13 A3020 RMK AO2
KMDQ 220055Z AUTO 00000KT 10SM CLR 17/13 A3020 RMK AO2
KMDQ 220035Z AUTO 00000KT 10SM CLR 17/14 A3019 RMK AO2
KMDQ 220015Z AUTO 14003KT 10SM CLR 18/14 A3019 RMK AO2
KMDQ 212355Z AUTO 13003KT 10SM CLR 18/14 A3019 RMK AO2
KMDQ 212335Z AUTO 00000KT 10SM CLR 18/14 A3019 RMK AO2
KMDQ 212315Z AUTO 00000KT 10SM CLR 20/14 A3019 RMK AO2
KMDQ 212255Z AUTO 00000KT 10SM CLR 20/14 A3019 RMK AO2
KMDQ 212235Z AUTO 12003KT 10SM CLR 22/13 A3019 RMK AO2
KMDQ 212215Z AUTO 12004KT 10SM CLR 22/13 A3019 RMK AO2
KMDQ 212155Z AUTO 12004KT 10SM CLR 23/13 A3019 RMK AO2
KMDQ 212135Z AUTO 13004KT 10SM CLR 23/12 A3019 RMK AO2
KMDQ 212115Z AUTO 14006KT 10SM CLR 24/12 A3019 RMK AO2
KMDQ 212055Z AUTO 13005KT 10SM CLR 24/13 A3019 RMK AO2
KMDQ 212035Z AUTO 14005KT 10SM CLR 25/13 A3019 RMK AO2
KMDQ 212015Z AUTO 14005KT 10SM CLR 25/13 A3019 RMK AO2
KMDQ 211955Z AUTO 13004KT 10SM CLR 25/13 A3019 RMK AO2
KMDQ 211935Z AUTO 14005KT 10SM CLR 25/13 A3019 RMK AO2
KMDQ 211915Z AUTO 15006KT 10SM CLR 25/12 A3020 RMK AO2
KMDQ 211855Z AUTO 16007KT 120V180 10SM CLR 25/12 A3020 RMK AO2
KMDQ 211835Z AUTO 17009KT 10SM CLR 25/12 A3021 RMK AO2
KMDQ 211815Z AUTO 15007KT 10SM CLR 25/12 A3022 RMK AO2
KMDQ 211755Z AUTO 14009KT 10SM CLR 25/12 A3023 RMK AO2
KMDQ 211735Z AUTO 15008KT 10SM CLR 24/12 A3024 RMK AO2
KMDQ 211715Z AUTO 16012G18KT 10SM CLR 24/12 A3024 RMK AO2
KMDQ 211655Z AUTO 15012G16KT 10SM CLR 23/13 A3024 RMK AO2
KMDQ 211635Z AUTO 15013G17KT 10SM CLR 23/12 A3025 RMK AO2
KMDQ 211615Z AUTO 15009G16KT 10SM CLR 22/13 A3025 RMK AO2
KMDQ 211555Z AUTO 15008KT 10SM CLR 22/13 A3026 RMK AO2
KMDQ 211535Z AUTO 13007KT 10SM CLR 20/12 A3026 RMK AO2
KMDQ 211515Z AUTO 14007KT 10SM CLR 20/12 A3026 RMK AO2
KMDQ 211455Z AUTO 13007KT 10SM CLR 19/11 A3026 RMK AO2
KMDQ 211435Z AUTO 13005KT 10SM CLR 18/11 A3026 RMK AO2
KMDQ 211415Z AUTO 15004KT 10SM CLR 17/10 A3026 RMK AO2
KMDQ 211355Z AUTO 00000KT 10SM CLR 13/11 A3026 RMK AO2
KMDQ 211335Z AUTO 00000KT 10SM CLR 11/10 A3026 RMK AO2
KMDQ 211315Z AUTO 00000KT 10SM CLR 10/08 A3024 RMK AO2
KMDQ 211255Z AUTO 00000KT 10SM CLR 08/07 A3024 RMK AO2
KMDQ 211235Z AUTO 00000KT 10SM CLR 08/07 A3023 RMK AO2
KMDQ 211215Z AUTO 00000KT 10SM CLR 08/06 A3022 RMK AO2
KMDQ 211155Z AUTO 00000KT 10SM CLR 08/07 A3022 RMK AO2
KMDQ 211135Z AUTO 00000KT 10SM CLR 08/08 A3022 RMK AO2
KMDQ 211115Z AUTO 00000KT 10SM CLR 08/07 A3021 RMK AO2
KMDQ 211055Z AUTO 00000KT 10SM CLR 08/07 A3021 RMK AO2
KMDQ 211035Z AUTO 00000KT 10SM CLR 08/08 A3020 RMK AO2
KMDQ 211015Z AUTO 00000KT 10SM CLR 08/07 A3019 RMK AO2
KMDQ 210955Z AUTO 00000KT 10SM CLR 08/07 A3019 RMK AO2
KMDQ 210935Z AUTO 00000KT 10SM CLR 08/07 A3019 RMK AO2
KMDQ 210915Z AUTO 00000KT 10SM CLR 08/07 A3019 RMK AO2